Time;durP1;ratioP1;P1;durP2;ratioP2;P2;SDS_P1;SDS_P2;PMS_P1;PMS_P2;Temp;Humidity;BMP_temperature;BMP_pressure;BME280_temperature;BME280_humidity;BME280_pressure;Samples;Min_cycle;Max_cycle;Signal;HPM_P1;HPM_P2
2024/01/24 00:03:39;;;;;;;31.83;16.08;;;;;;;2.06;63.61;101127.56;7711330;32;39174;-81
2024/01/24 00:07:55;;;;;;;32.65;15.50;;;;;;;2.12;64.38;101140.31;7710107;32;39932;-81
2024/01/24 00:12:12;;;;;;;37.58;17.75;;;;;;;2.19;63.87;101151.13;7710949;32;37870;-81
2024/01/24 00:16:28;;;;;;;38.60;16.92;;;;;;;2.40;63.09;101155.81;7710975;32;37878;-81
2024/01/24 00:20:44;;;;;;;32.95;15.30;;;;;;;2.20;62.77;101167.09;7707819;32;39050;-81
2024/01/24 00:25:01;;;;;;;32.70;15.77;;;;;;;2.26;62.72;101157.47;7684099;32;40649;-81
2024/01/24 00:29:17;;;;;;;37.83;15.48;;;;;;;2.30;62.68;101152.56;7683942;32;38173;-82
2024/01/24 00:33:33;;;;;;;35.22;16.02;;;;;;;2.13;62.90;101143.81;7683984;32;37929;-82
2024/01/24 00:37:49;;;;;;;41.42;17.37;;;;;;;2.06;62.78;101136.47;7683776;32;39389;-81
2024/01/24 00:42:06;;;;;;;30.15;14.52;;;;;;;2.27;61.86;101136.78;7683717;32;40852;-81
2024/01/24 00:46:22;;;;;;;32.85;15.02;;;;;;;2.21;62.73;101144.56;7683596;32;37872;-81
2024/01/24 00:50:39;;;;;;;37.28;16.58;;;;;;;2.24;63.01;101143.34;7683670;32;37022;-81
2024/01/24 00:54:55;;;;;;;38.05;18.58;;;;;;;2.13;62.83;101141.97;7683524;32;39345;-81
2024/01/24 00:59:11;;;;;;;44.70;19.87;;;;;;;2.01;62.38;101146.09;7683090;32;40801;-81
2024/01/24 01:03:27;;;;;;;51.42;21.83;;;;;;;2.05;61.95;101139.34;7683193;32;38029;-81
2024/01/24 01:07:44;;;;;;;46.30;21.40;;;;;;;1.99;61.86;101137.38;7683101;32;37478;-81
2024/01/24 01:12:00;;;;;;;44.13;20.55;;;;;;;1.39;63.04;101122.91;7682697;32;39593;-81
2024/01/24 01:16:16;;;;;;;48.42;19.73;;;;;;;1.45;62.30;101123.03;7684499;32;39908;-81
2024/01/24 01:20:32;;;;;;;39.05;17.55;;;;;;;1.62;61.70;101091.50;7686206;32;37768;-81
2024/01/24 01:24:48;;;;;;;44.95;19.65;;;;;;;1.67;62.34;101088.25;7686313;32;38097;-82
2024/01/24 01:29:05;;;;;;;40.83;17.35;;;;;;;1.52;63.11;101095.44;7733362;32;39310;-81
2024/01/24 01:33:21;;;;;;;36.47;15.63;;;;;;;1.59;62.56;101085.66;7739670;32;39880;-82
2024/01/24 01:37:39;;;;;;;37.63;15.80;;;;;;;1.66;62.31;101047.09;7739650;32;38729;-82
2024/01/24 01:41:55;;;;;;;35.83;17.67;;;;;;;1.46;63.32;101037.88;7739748;32;37303;-82
2024/01/24 01:46:21;;;;;;;39.95;18.75;;;;;;;1.49;63.50;101046.41;7739528;32;40139;-81
2024/01/24 01:50:38;;;;;;;38.25;17.27;;;;;;;1.74;61.92;101046.16;7739517;32;39977;-81
2024/01/24 01:54:54;;;;;;;35.42;18.48;;;;;;;1.55;62.30;101041.31;7739322;32;37842;-82
2024/01/24 01:59:11;;;;;;;33.08;18.87;;;;;;;1.58;61.10;101036.41;7734453;32;154538;-81
2024/01/24 02:03:28;;;;;;;34.33;16.95;;;;;;;1.66;61.29;101033.66;7725499;32;39340;-82
2024/01/24 02:07:45;;;;;;;29.92;14.32;;;;;;;1.54;61.63;101023.53;7732076;32;40627;-81
2024/01/24 02:16:32;;;;;;;26.40;12.43;;;;;;;1.81;61.07;100992.50;7761757;26;20106;-81
2024/01/24 02:20:49;;;;;;;37.08;18.17;;;;;;;1.66;62.47;100997.88;7685704;32;39441;-81
2024/01/24 02:25:05;;;;;;;37.03;16.00;;;;;;;1.51;63.46;101005.91;7685450;32;40530;-82
2024/01/24 02:29:22;;;;;;;33.33;15.52;;;;;;;1.60;62.15;100991.34;7684795;32;37994;-82
2024/01/24 02:33:38;;;;;;;29.12;13.93;;;;;;;1.65;61.65;100966.63;7685582;32;37238;-82
2024/01/24 02:37:55;;;;;;;32.92;15.18;;;;;;;1.59;62.48;100978.12;7685541;32;40178;-81
2024/01/24 02:42:11;;;;;;;29.05;12.98;;;;;;;1.60;62.36;100990.53;7686239;32;40537;-82
2024/01/24 02:46:28;;;;;;;33.05;13.52;;;;;;;1.62;62.59;100986.66;7685245;32;38137;-82
2024/01/24 02:50:44;;;;;;;26.42;11.52;;;;;;;1.46;62.47;100960.75;7685331;32;38149;-82
2024/01/24 02:55:01;;;;;;;23.95;13.07;;;;;;;1.74;62.36;100967.38;7685332;32;39346;-81
2024/01/24 02:59:17;;;;;;;25.23;12.98;;;;;;;1.83;62.44;100969.78;7685318;32;39772;-82
2024/01/24 03:03:33;;;;;;;30.88;13.35;;;;;;;1.88;62.39;100927.03;7685184;32;38684;-82
2024/01/24 03:07:50;;;;;;;30.62;15.55;;;;;;;1.75;63.07;100918.78;7685079;32;37984;-81
2024/01/24 03:12:06;;;;;;;37.15;16.55;;;;;;;1.38;63.94;100933.13;7685234;32;39402;-82
2024/01/24 03:16:23;;;;;;;38.80;16.92;;;;;;;1.61;62.65;100907.03;7684844;32;40837;-81
2024/01/24 03:20:39;;;;;;;35.13;17.60;;;;;;;1.53;62.39;100908.97;7684984;32;38487;-82
2024/01/24 03:24:56;;;;;;;39.95;18.58;;;;;;;1.67;61.56;100897.38;7685042;32;37337;-82
2024/01/24 03:29:12;;;;;;;38.25;19.50;;;;;;;1.24;62.40;100889.09;7684802;32;40238;-82
2024/01/24 03:33:29;;;;;;;39.00;18.00;;;;;;;1.41;61.85;100874.47;7699565;32;40861;-81
2024/01/24 03:37:45;;;;;;;36.75;17.27;;;;;;;1.29;62.38;100857.16;7711368;32;39341;-81
2024/01/24 03:42:01;;;;;;;45.83;21.08;;;;;;;1.31;62.19;100868.53;7711274;32;37086;-82
2024/01/24 03:46:20;;;;;;;48.20;20.35;;;;;;;1.03;63.46;100871.84;7711437;32;40241;-82
2024/01/24 03:50:38;;;;;;;42.53;18.65;;;;;;;0.98;63.20;100889.53;7711295;32;40863;-81
2024/01/24 03:54:54;;;;;;;33.58;16.48;;;;;;;1.10;62.95;100883.56;7711365;32;37916;-80
2024/01/24 03:59:11;;;;;;;41.28;20.62;;;;;;;1.37;62.32;100870.50;7711306;32;37309;-81
2024/01/24 04:03:27;;;;;;;40.70;19.40;;;;;;;1.36;62.12;100876.88;7711274;32;38999;-81
2024/01/24 04:07:44;;;;;;;41.25;19.75;;;;;;;1.36;62.04;100876.06;7711103;32;39992;-82
2024/01/24 04:12:00;;;;;;;35.45;18.70;;;;;;;0.82;63.96;100887.81;7698731;32;37983;-82
2024/01/24 04:16:16;;;;;;;40.20;18.00;;;;;;;1.37;62.52;100880.41;7684322;32;37381;-81
2024/01/24 04:20:32;;;;;;;36.97;17.67;;;;;;;1.07;63.56;100872.31;7684359;32;39440;-81
2024/01/24 04:24:49;;;;;;;31.95;15.20;;;;;;;1.47;62.60;100873.75;7694011;32;41004;-81
2024/01/24 04:29:05;;;;;;;27.80;13.32;;;;;;;1.37;63.31;100872.38;7710715;32;38510;-81
2024/01/24 04:33:26;;;;;;;26.70;12.07;;;;;;;1.36;63.63;100874.19;7710241;32;37196;-82
2024/01/24 04:37:43;;;;;;;25.60;12.37;;;;;;;1.68;63.16;100858.72;7710607;32;40142;-81
2024/01/24 04:41:59;;;;;;;27.75;12.93;;;;;;;1.73;63.75;100872.44;7710543;32;39625;-81
2024/01/24 04:46:27;;;;;;;30.30;14.35;;;;;;;1.76;63.86;100865.84;7710403;32;38703;-82
2024/01/24 04:50:43;;;;;;;33.13;14.52;;;;;;;1.53;63.74;100849.84;7709535;32;37823;-81
2024/01/24 04:55:00;;;;;;;33.03;13.43;;;;;;;1.39;64.48;100863.09;7710344;32;39333;-80
2024/01/24 04:59:16;;;;;;;37.13;16.52;;;;;;;1.76;63.69;100852.41;7710080;32;39976;-82
2024/01/24 05:03:33;;;;;;;30.35;14.25;;;;;;;1.71;64.24;100839.53;7709959;32;37922;-81
2024/01/24 05:07:49;;;;;;;29.33;15.55;;;;;;;1.82;64.60;100830.97;7709822;32;37447;-81
2024/01/24 05:12:06;;;;;;;30.83;15.48;;;;;;;1.58;65.06;100834.81;7695273;32;39265;-81
2024/01/24 05:16:22;;;;;;;31.40;14.50;;;;;;;1.71;64.10;100820.72;7682867;32;39933;-81
2024/01/24 05:20:39;;;;;;;27.35;14.60;;;;;;;1.61;64.17;100817.50;7686505;32;37997;-81
2024/01/24 05:24:55;;;;;;;33.35;15.95;;;;;;;1.80;64.19;100808.00;7709538;32;37948;-81
2024/01/24 05:29:11;;;;;;;31.40;16.25;;;;;;;0.93;66.72;100818.41;7709317;32;39115;-81
2024/01/24 05:33:28;;;;;;;34.20;15.55;;;;;;;1.11;66.54;100836.84;7691025;32;40822;-81
2024/01/24 05:37:44;;;;;;;32.70;14.82;;;;;;;1.48;65.44;100829.75;7682624;32;37950;-81
2024/01/24 05:42:01;;;;;;;35.60;16.73;;;;;;;1.78;64.15;100805.50;7694429;32;38247;-81
2024/01/24 05:46:17;;;;;;;36.08;15.70;;;;;;;1.61;64.67;100783.38;7708966;32;39177;-81
2024/01/24 05:50:33;;;;;;;27.33;14.75;;;;;;;1.64;65.22;100776.78;7708862;32;39816;-82
2024/01/24 05:54:50;;;;;;;36.85;17.08;;;;;;;1.54;65.95;100776.25;7708569;32;38604;-81
2024/01/24 05:59:06;;;;;;;31.98;15.30;;;;;;;1.46;65.29;100794.13;7708621;32;37380;-81
2024/01/24 06:03:22;;;;;;;37.05;19.35;;;;;;;1.66;65.06;100780.94;7709481;32;40108;-81
2024/01/24 06:07:39;;;;;;;44.80;22.77;;;;;;;1.87;64.39;100774.75;7712590;32;39906;-81
2024/01/24 06:11:56;;;;;;;38.30;19.75;;;;;;;1.48;65.44;100775.13;7711891;32;38138;-81
2024/01/24 06:16:12;;;;;;;41.30;19.65;;;;;;;1.77;65.10;100776.94;7712315;32;37250;-82
2024/01/24 06:20:29;;;;;;;37.65;19.83;;;;;;;1.73;65.17;100759.53;7711376;32;39425;-80
2024/01/24 06:24:45;;;;;;;30.40;14.02;;;;;;;1.68;65.97;100751.19;7712448;32;41814;-81
2024/01/24 06:29:02;;;;;;;36.72;16.48;;;;;;;2.18;65.02;100735.97;7712177;32;37986;-81
2024/01/24 06:33:18;;;;;;;34.92;17.62;;;;;;;1.88;66.23;100722.66;7693453;32;37935;-81
2024/01/24 06:37:36;;;;;;;31.10;14.25;;;;;;;2.10;65.84;100709.19;7685598;32;40268;-81
2024/01/24 06:41:53;;;;;;;22.80;11.82;;;;;;;2.62;64.91;100699.88;7685519;32;39933;-81
2024/01/24 06:46:11;;;;;;;27.13;12.68;;;;;;;2.58;65.79;100703.16;7685439;32;38027;-81
2024/01/24 06:50:29;;;;;;;30.37;14.38;;;;;;;2.86;65.40;100692.31;7685392;32;36894;-81
2024/01/24 06:54:45;;;;;;;22.02;10.02;;;;;;;2.78;66.19;100681.75;7685427;32;39055;-82
2024/01/24 06:59:02;;;;;;;24.67;11.55;;;;;;;3.09;65.32;100678.56;7685268;32;40915;-82
2024/01/24 07:03:18;;;;;;;24.15;11.65;;;;;;;3.26;65.40;100673.69;7685134;32;38051;-81
2024/01/24 07:07:38;;;;;;;17.20;9.23;;;;;;;3.27;65.11;100659.16;7685107;32;38194;-81
2024/01/24 07:11:54;;;;;;;24.25;11.23;;;;;;;3.68;64.49;100649.31;7685165;32;40183;-81
2024/01/24 07:16:11;;;;;;;35.88;16.67;;;;;;;3.73;64.13;100653.03;7684508;32;40901;-82
2024/01/24 07:20:28;;;;;;;31.10;14.43;;;;;;;3.38;64.96;100647.78;7703055;32;37714;-81
2024/01/24 07:24:45;;;;;;;35.47;17.30;;;;;;;3.44;64.43;100653.41;7711629;32;37152;-82
2024/01/24 07:29:01;;;;;;;50.50;25.25;;;;;;;3.68;64.05;100646.59;7711500;32;39100;-81
2024/01/24 07:33:18;;;;;;;27.42;13.62;;;;;;;3.78;64.01;100633.53;7711545;32;40880;-82
2024/01/24 07:37:38;;;;;;;28.92;12.80;;;;;;;3.93;63.25;100630.63;7711441;32;38783;-82
2024/01/24 07:41:55;;;;;;;26.27;12.30;;;;;;;3.94;62.98;100635.81;7711526;32;37188;-82
2024/01/24 07:46:12;;;;;;;24.00;11.15;;;;;;;3.80;63.79;100619.84;7711443;32;39234;-82
2024/01/24 07:50:28;;;;;;;22.60;12.25;;;;;;;4.12;62.53;100613.63;7711262;32;40537;-82
2024/01/24 07:54:45;;;;;;;25.30;13.32;;;;;;;4.03;62.86;100622.94;7711240;32;38808;-82
2024/01/24 07:59:01;;;;;;;26.70;12.15;;;;;;;4.02;63.12;100620.44;7706146;32;37040;-82
2024/01/24 08:03:19;;;;;;;20.42;11.45;;;;;;;4.14;62.92;100594.53;7711336;32;39380;-83
2024/01/24 08:07:36;;;;;;;20.00;11.93;;;;;;;3.92;63.60;100624.41;7711129;32;40052;-83
2024/01/24 08:11:53;;;;;;;17.83;10.20;;;;;;;4.19;63.14;100623.56;7709394;32;37920;-83
2024/01/24 08:16:10;;;;;;;22.02;11.15;;;;;;;4.20;63.18;100614.44;7710825;32;38031;-82
2024/01/24 08:20:27;;;;;;;18.33;9.40;;;;;;;4.06;64.10;100600.94;7692692;32;40122;-82
2024/01/24 08:24:44;;;;;;;17.55;8.32;;;;;;;4.41;63.24;100606.09;7684265;32;40623;-82
2024/01/24 08:29:00;;;;;;;17.67;9.18;;;;;;;4.01;65.14;100599.94;7701946;32;38723;-81
2024/01/24 08:33:17;;;;;;;18.23;7.60;;;;;;;4.41;63.95;100592.56;7710797;32;38080;-83
2024/01/24 08:37:34;;;;;;;18.67;8.32;;;;;;;4.54;63.98;100580.09;7710755;32;40208;-84
2024/01/24 08:41:50;;;;;;;16.20;8.05;;;;;;;4.59;62.82;100570.31;7710556;32;40051;-84
2024/01/24 08:46:07;;;;;;;16.23;8.13;;;;;;;4.97;61.83;100587.62;7709144;32;37964;-80
2024/01/24 08:50:24;;;;;;;14.68;7.93;;;;;;;5.26;61.41;100557.31;7708700;32;36833;-81
2024/01/24 08:54:43;;;;;;;16.62;8.48;;;;;;;5.00;62.23;100554.75;7710237;32;40097;-81
2024/01/24 08:59:00;;;;;;;17.52;8.20;;;;;;;5.05;61.71;100546.81;7710240;32;40873;-81
2024/01/24 09:03:18;;;;;;;11.82;6.87;;;;;;;5.27;61.48;100548.13;7709962;32;38766;-81
2024/01/24 09:07:35;;;;;;;9.35;5.97;;;;;;;5.38;61.32;100533.09;7683324;32;36979;-82
2024/01/24 09:11:52;;;;;;;10.43;6.07;;;;;;;5.50;60.20;100537.78;7683084;32;39430;-82
2024/01/24 09:16:12;;;;;;;9.05;5.82;;;;;;;5.09;61.78;100531.84;7682998;32;40163;-80
2024/01/24 09:20:29;;;;;;;13.55;5.90;;;;;;;5.34;60.38;100525.63;7684789;32;37547;-82
2024/01/24 09:24:46;;;;;;;9.65;5.07;;;;;;;5.62;59.79;100504.41;7698902;32;37175;-81
2024/01/24 09:29:06;;;;;;;11.30;6.00;;;;;;;5.54;59.14;100518.19;7680139;32;40152;-81
2024/01/24 09:33:23;;;;;;;10.15;5.25;;;;;;;5.87;59.11;100497.31;7681731;32;39869;-82
2024/01/24 09:37:40;;;;;;;11.27;5.22;;;;;;;5.82;57.45;100492.56;7684101;32;40065;-81
2024/01/24 09:41:57;;;;;;;7.60;4.57;;;;;;;5.87;58.20;100467.56;7685785;32;37313;-81
2024/01/24 09:46:18;;;;;;;7.07;4.40;;;;;;;5.93;55.26;100459.38;7700074;32;39910;-81
2024/01/24 09:50:35;;;;;;;7.55;4.53;;;;;;;6.00;55.27;100457.44;7686039;32;40799;-80
2024/01/24 09:54:59;;;;;;;6.78;4.37;;;;;;;6.18;58.24;100439.53;7686006;32;37714;-74
2024/01/24 09:59:15;;;;;;;8.52;4.32;;;;;;;7.10;59.32;100417.59;7686289;32;37845;-82
2024/01/24 10:03:32;;;;;;;5.55;3.97;;;;;;;6.98;53.09;100386.09;7686052;32;40149;-81
2024/01/24 10:07:53;;;;;;;8.10;4.37;;;;;;;6.87;52.89;100393.16;7686009;32;40128;-82
2024/01/24 10:12:10;;;;;;;8.48;4.43;;;;;;;6.73;53.26;100374.38;7697012;32;38015;-82
2024/01/24 10:16:27;;;;;;;6.62;4.10;;;;;;;6.59;53.35;100362.09;7685770;32;37070;-82
2024/01/24 10:20:45;;;;;;;9.07;4.18;;;;;;;7.26;52.02;100323.88;7685832;32;39937;-82
2024/01/24 10:25:12;;;;;;;8.48;4.45;;;;;;;7.20;51.68;100321.28;7696289;32;39998;-80
2024/01/24 10:29:29;;;;;;;7.78;4.50;;;;;;;6.41;52.96;100348.63;7685663;32;37810;-83
2024/01/24 10:33:48;;;;;;;4.95;3.78;;;;;;;7.23;51.13;100345.22;7685947;32;38013;-80
2024/01/24 10:38:09;;;;;;;10.55;4.57;;;;;;;6.44;51.73;100334.63;7685745;32;39133;-82
2024/01/24 10:42:28;;;;;;;7.10;4.10;;;;;;;6.93;52.73;100310.88;7685456;32;40665;-82
2024/01/24 10:46:45;;;;;;;7.68;4.07;;;;;;;6.86;50.65;100304.75;7696561;32;37940;-83
2024/01/24 10:51:02;;;;;;;7.95;4.07;;;;;;;6.93;50.84;100286.50;7685294;32;36874;-84
2024/01/24 10:55:20;;;;;;;8.02;3.80;;;;;;;6.52;52.00;100282.81;7685451;32;40304;-84
2024/01/24 10:59:38;;;;;;;8.15;4.25;;;;;;;6.37;51.41;100258.88;7696494;32;39054;-84
2024/01/24 11:03:55;;;;;;;7.00;4.03;;;;;;;6.81;51.42;100247.72;7696494;32;38024;-83
2024/01/24 11:08:30;;;;;;;8.30;4.57;;;;;;;6.37;52.32;100231.81;7685356;32;36990;-83
2024/01/24 11:13:01;;;;;;;7.65;4.53;;;;;;;6.66;53.03;100232.78;7694645;32;40127;-83
2024/01/24 11:17:20;;;;;;;6.70;4.32;;;;;;;6.09;53.68;100216.19;7685299;32;40784;-82
2024/01/24 11:21:37;;;;;;;6.18;3.87;;;;;;;6.12;52.57;100216.56;7685170;32;36767;-83
2024/01/24 11:25:53;;;;;;;9.75;4.03;;;;;;;6.32;51.46;100194.59;7697888;32;38019;-83
2024/01/24 11:30:17;;;;;;;10.35;5.40;;;;;;;6.91;50.71;100170.19;7686601;32;39462;-84
2024/01/24 11:34:35;;;;;;;20.35;8.60;;;;;;;7.11;52.49;100172.50;7684792;32;40155;-83
2024/01/24 11:38:52;;;;;;;21.83;8.70;;;;;;;7.47;54.73;100183.25;7685299;32;37936;-83
2024/01/24 11:43:24;;;;;;;12.73;6.72;;;;;;;7.32;55.83;100202.75;7696784;32;37149;-84
2024/01/24 11:47:40;;;;;;;15.60;7.72;;;;;;;7.59;55.85;100202.19;7702078;32;39217;-84
2024/01/24 11:52:02;;;;;;;13.15;5.87;;;;;;;7.19;57.77;100195.69;7686107;32;40085;-83
2024/01/24 11:56:19;;;;;;;12.37;5.15;;;;;;;7.27;57.99;100210.78;7684662;32;37923;-82
2024/01/24 12:00:38;;;;;;;11.25;6.15;;;;;;;7.28;58.94;100226.00;7684732;32;38003;-83
2024/01/24 12:04:56;;;;;;;15.70;7.22;;;;;;;7.13;59.28;100216.47;7695731;32;40137;-82
2024/01/24 12:09:14;;;;;;;11.95;6.70;;;;;;;7.25;58.89;100212.91;7687608;32;39988;-85
2024/01/24 12:13:30;;;;;;;11.93;6.60;;;;;;;6.96;59.88;100202.00;7710972;32;38637;-88
2024/01/24 12:17:47;;;;;;;13.98;6.78;;;;;;;6.76;61.16;100183.37;7711055;32;37341;-85
2024/01/24 12:22:06;;;;;;;13.18;7.18;;;;;;;6.55;61.95;100201.06;7710741;32;40187;-85
2024/01/24 12:26:22;;;;;;;10.93;6.78;;;;;;;6.59;62.61;100188.72;7721824;32;40126;-85
2024/01/24 12:30:47;;;;;;;11.88;7.03;;;;;;;7.02;61.07;100165.81;7709944;32;37531;-85
2024/01/24 12:35:06;;;;;;;16.08;7.78;;;;;;;6.96;61.23;100142.37;7710821;32;37145;-86
2024/01/24 12:39:32;;;;;;;14.05;7.50;;;;;;;6.88;61.70;100159.00;7710860;32;39267;-85
2024/01/24 12:43:49;;;;;;;18.70;7.30;;;;;;;6.83;62.32;100119.06;7710723;32;39922;-85
2024/01/24 12:48:12;;;;;;;17.12;7.95;;;;;;;6.92;62.37;100111.41;7721752;32;38704;-85
2024/01/24 12:52:29;;;;;;;10.95;7.05;;;;;;;6.85;63.11;100102.56;7710392;32;37412;-85
2024/01/24 12:56:47;;;;;;;11.12;6.68;;;;;;;6.89;63.61;100114.56;7710349;32;39192;-85
2024/01/24 13:01:06;;;;;;;13.82;6.35;;;;;;;7.06;63.45;100101.91;7710277;32;39899;-86
2024/01/24 13:05:23;;;;;;;15.77;6.45;;;;;;;6.88;63.98;100093.94;7710132;32;37978;-85
2024/01/24 13:09:53;;;;;;;12.93;7.25;;;;;;;6.87;63.44;100097.75;7710005;32;36913;-85
2024/01/24 13:14:13;;;;;;;12.32;7.30;;;;;;;6.83;62.99;100088.41;7712182;32;39204;-85
2024/01/24 13:18:30;;;;;;;16.30;8.18;;;;;;;6.73;63.01;100098.00;7724549;32;40152;-85
2024/01/24 13:22:46;;;;;;;12.82;7.37;;;;;;;6.80;62.63;100088.91;7713044;32;37944;-85
2024/01/24 13:27:03;;;;;;;13.20;7.40;;;;;;;6.70;63.06;100076.78;7713330;32;37213;-84
2024/01/24 13:31:19;;;;;;;14.15;7.82;;;;;;;6.54;63.62;100080.25;7713003;32;40066;-84
2024/01/24 13:35:35;;;;;;;22.50;9.55;;;;;;;6.49;63.87;100064.72;7713112;32;39732;-85
2024/01/24 13:39:52;;;;;;;14.65;8.10;;;;;;;6.48;64.03;100078.47;7713027;32;37804;-85
2024/01/24 13:44:12;;;;;;;16.33;8.90;;;;;;;5.94;66.00;100079.41;7724265;32;37229;-85
2024/01/24 13:48:28;;;;;;;16.37;9.30;;;;;;;6.06;66.06;100060.50;7713055;32;39461;-85
2024/01/24 13:52:45;;;;;;;17.17;9.52;;;;;;;5.98;65.83;100047.31;7712707;32;41031;-84
2024/01/24 13:57:02;;;;;;;15.43;8.93;;;;;;;6.44;64.44;100010.44;7712756;32;37913;-84
2024/01/24 14:01:19;;;;;;;14.20;8.02;;;;;;;6.24;64.71;100024.34;7724022;32;37899;-84
2024/01/24 14:05:36;;;;;;;17.80;8.05;;;;;;;6.50;64.22;100027.59;7712721;32;39316;-84
2024/01/24 14:09:55;;;;;;;15.15;8.95;;;;;;;6.62;63.81;100009.44;7712620;32;39630;-85
2024/01/24 14:14:11;;;;;;;16.75;8.20;;;;;;;6.58;64.12;100008.28;7711889;32;37722;-84
2024/01/24 14:18:28;;;;;;;15.68;8.23;;;;;;;6.55;63.94;99987.06;7712540;32;37474;-84
2024/01/24 14:22:45;;;;;;;16.85;9.35;;;;;;;6.39;64.50;99994.88;7712239;32;40050;-85
2024/01/24 14:27:02;;;;;;;14.55;8.85;;;;;;;6.35;64.20;99999.16;7723193;32;40009;-84
2024/01/24 14:31:18;;;;;;;16.65;9.63;;;;;;;6.33;64.32;99989.59;7712491;32;37931;-84
2024/01/24 14:35:34;;;;;;;17.42;10.13;;;;;;;6.04;65.17;99994.97;7712378;32;37946;-85
2024/01/24 14:39:52;;;;;;;26.15;13.18;;;;;;;5.60;66.49;99976.31;7712334;32;39409;-84
2024/01/24 14:44:08;;;;;;;22.85;14.30;;;;;;;5.59;66.88;99988.22;7712218;32;39932;-86
2024/01/24 14:48:24;;;;;;;27.02;13.20;;;;;;;5.79;65.87;99987.84;7712029;32;38726;-84
2024/01/24 14:52:41;;;;;;;26.17;13.93;;;;;;;6.15;64.81;99972.44;7712035;32;37976;-85
2024/01/24 14:56:57;;;;;;;22.10;13.65;;;;;;;6.16;64.85;99967.88;7712068;32;39176;-84
2024/01/24 15:01:19;;;;;;;19.83;11.68;;;;;;;5.96;65.24;99954.72;7711922;32;40799;-84
2024/01/24 15:05:36;;;;;;;21.12;11.23;;;;;;;5.89;65.64;99962.94;7711946;32;37641;-84
2024/01/24 15:09:52;;;;;;;17.77;11.35;;;;;;;5.64;66.45;99968.59;7711958;32;37171;-84
2024/01/24 15:14:08;;;;;;;17.10;10.05;;;;;;;5.95;65.22;99959.28;7711773;32;39302;-85
2024/01/24 15:18:25;;;;;;;18.37;9.27;;;;;;;5.82;65.53;99967.62;7711919;32;39999;-84
2024/01/24 15:22:42;;;;;;;16.30;8.98;;;;;;;6.14;64.05;99964.56;7711841;32;37664;-84
2024/01/24 15:26:58;;;;;;;21.80;11.50;;;;;;;6.08;64.29;99987.19;7711830;32;37312;-85
2024/01/24 15:31:17;;;;;;;17.52;10.70;;;;;;;5.92;64.70;99978.69;7711627;32;39376;-85
2024/01/24 15:35:34;;;;;;;20.23;10.82;;;;;;;5.67;65.73;99978.91;7711315;32;39087;-84
2024/01/24 15:39:50;;;;;;;19.67;12.77;;;;;;;5.57;65.76;99971.41;7711382;32;38650;-86
2024/01/24 15:44:06;;;;;;;27.35;13.40;;;;;;;5.74;64.81;99960.69;7711601;32;37489;-85
2024/01/24 15:48:23;;;;;;;22.42;12.95;;;;;;;5.25;66.22;99995.22;7711585;32;40193;-85
2024/01/24 15:52:39;;;;;;;31.40;17.30;;;;;;;5.54;64.43;99955.66;7711330;32;39686;-85
2024/01/24 15:56:56;;;;;;;37.20;20.50;;;;;;;5.39;65.53;99971.50;7711539;32;38735;-84
2024/01/24 16:01:12;;;;;;;33.67;17.70;;;;;;;5.40;64.99;99959.66;7711307;32;38190;-85
2024/01/24 16:05:45;;;;;;;30.10;15.80;;;;;;;5.29;65.43;99963.13;7711326;32;39866;-85
2024/01/24 16:10:02;;;;;;;24.30;14.87;;;;;;;5.30;65.08;99979.13;7711197;32;40916;-85
2024/01/24 16:14:25;;;;;;;28.00;15.40;;;;;;;5.50;64.67;99964.44;7710893;32;38570;-85
2024/01/24 16:18:43;;;;;;;24.80;15.00;;;;;;;5.36;64.97;99955.75;7711284;32;37996;-84
2024/01/24 16:22:59;;;;;;;22.30;13.73;;;;;;;5.42;65.17;99963.75;7710998;32;39926;-84
2024/01/24 16:27:16;;;;;;;19.98;13.18;;;;;;;5.35;65.79;99978.44;7711024;32;40947;-84
2024/01/24 16:31:33;;;;;;;21.83;13.60;;;;;;;5.61;64.82;99979.88;7710855;32;37826;-84
2024/01/24 16:35:49;;;;;;;22.10;12.25;;;;;;;5.56;65.24;99975.16;7710766;32;36983;-85
2024/01/24 16:40:07;;;;;;;21.87;11.98;;;;;;;5.60;64.92;99986.34;7710719;32;40242;-85
2024/01/24 16:44:23;;;;;;;25.48;14.68;;;;;;;5.68;64.48;99991.41;7710739;32;39978;-85
2024/01/24 16:48:41;;;;;;;23.05;12.20;;;;;;;5.37;65.93;99992.53;7709474;32;37726;-84
2024/01/24 16:52:57;;;;;;;20.00;12.75;;;;;;;5.53;65.49;100002.66;7710402;32;37025;-85
2024/01/24 16:57:15;;;;;;;23.77;12.65;;;;;;;5.05;67.13;100022.53;7710367;32;40143;-84
2024/01/24 17:01:31;;;;;;;21.33;12.73;;;;;;;5.25;66.01;100023.06;7710211;32;39683;-84
2024/01/24 17:05:48;;;;;;;28.42;13.75;;;;;;;5.67;64.64;100030.31;7709978;32;38566;-85
2024/01/24 17:10:05;;;;;;;33.90;17.30;;;;;;;5.35;65.81;100032.50;7709918;32;37543;-85
2024/01/24 17:14:22;;;;;;;25.10;15.50;;;;;;;5.61;64.78;100005.03;7709827;32;39440;-84
2024/01/24 17:18:38;;;;;;;29.50;17.52;;;;;;;5.51;65.05;99999.38;7709867;32;40007;-85
2024/01/24 17:22:55;;;;;;;27.67;16.45;;;;;;;5.53;64.94;100007.25;7709612;32;38845;-84
2024/01/24 17:27:12;;;;;;;29.98;17.12;;;;;;;5.39;65.54;99998.53;7709560;32;37995;-84
2024/01/24 17:31:28;;;;;;;35.00;19.10;;;;;;;5.54;65.23;100020.56;7709370;32;39304;-84
2024/01/24 17:35:45;;;;;;;28.45;17.42;;;;;;;5.40;65.53;100029.94;7709441;32;40449;-84
2024/01/24 17:40:02;;;;;;;33.70;17.33;;;;;;;5.46;65.21;100031.69;7709137;32;37769;-84
2024/01/24 17:44:18;;;;;;;27.37;16.20;;;;;;;5.69;64.32;100039.06;7709132;32;38142;-85
2024/01/24 17:48:36;;;;;;;28.92;15.88;;;;;;;5.63;64.17;100038.06;7708893;32;39836;-85
2024/01/24 17:52:54;;;;;;;29.10;16.77;;;;;;;5.50;64.76;100061.81;7708739;32;39933;-85
2024/01/24 17:57:10;;;;;;;27.33;15.18;;;;;;;5.40;64.90;100046.97;7708699;32;38131;-84
2024/01/24 18:01:29;;;;;;;22.45;14.07;;;;;;;5.51;64.47;100044.53;7712661;32;37054;-84
2024/01/24 18:05:45;;;;;;;29.48;15.32;;;;;;;5.46;64.03;100035.22;7712705;32;39108;-85
2024/01/24 18:10:02;;;;;;;24.20;13.98;;;;;;;5.41;64.19;100039.69;7712554;32;41035;-84
2024/01/24 18:14:19;;;;;;;22.65;14.40;;;;;;;5.45;63.78;100036.28;7712229;32;38063;-85
2024/01/24 18:18:36;;;;;;;25.92;14.43;;;;;;;5.41;64.12;100050.50;7712678;32;37919;-84
2024/01/24 18:22:53;;;;;;;25.12;14.00;;;;;;;5.54;63.65;100041.38;7712504;32;39460;-85
2024/01/24 18:27:10;;;;;;;24.30;15.20;;;;;;;5.55;63.84;100038.41;7712371;32;40022;-84
2024/01/24 18:31:26;;;;;;;22.98;14.68;;;;;;;5.48;64.04;100047.69;7712213;32;38711;-84
2024/01/24 18:35:43;;;;;;;22.45;13.90;;;;;;;5.49;63.86;100039.34;7712252;32;37510;-85
2024/01/24 18:39:59;;;;;;;24.55;14.18;;;;;;;5.42;63.71;100030.53;7712171;32;39189;-84
2024/01/24 18:44:15;;;;;;;26.77;14.85;;;;;;;5.33;64.21;100037.31;7712238;32;40632;-84
2024/01/24 18:48:32;;;;;;;23.05;14.23;;;;;;;4.98;65.69;100051.53;7712070;32;37815;-84
2024/01/24 18:52:49;;;;;;;26.62;15.38;;;;;;;5.32;63.92;100065.41;7711987;32;38116;-85
2024/01/24 18:57:06;;;;;;;24.90;13.77;;;;;;;5.11;64.44;100064.06;7712003;32;39166;-85
2024/01/24 19:01:22;;;;;;;23.10;12.82;;;;;;;5.41;63.76;100036.97;7712044;32;40923;-85
2024/01/24 19:05:39;;;;;;;22.20;12.57;;;;;;;5.44;63.82;100023.81;7711839;32;37967;-85
2024/01/24 19:09:59;;;;;;;22.17;12.65;;;;;;;5.41;64.40;100020.75;7711233;32;38063;-85
2024/01/24 19:14:15;;;;;;;19.23;11.12;;;;;;;5.35;65.91;100027.91;7711542;32;39019;-84
2024/01/24 19:18:32;;;;;;;17.15;10.75;;;;;;;5.61;65.61;100018.56;7711751;32;39885;-85
2024/01/24 19:22:49;;;;;;;22.95;12.37;;;;;;;5.53;66.76;100028.91;7706892;32;38281;-85
2024/01/24 19:27:06;;;;;;;23.12;13.75;;;;;;;5.61;65.52;100045.59;7688354;32;37507;-85
2024/01/24 19:31:23;;;;;;;17.17;11.15;;;;;;;5.17;65.81;100071.22;7694376;32;39125;-85
2024/01/24 19:35:41;;;;;;;19.95;11.90;;;;;;;5.41;64.57;100081.06;7686818;32;40887;-85
2024/01/24 19:39:57;;;;;;;26.83;14.38;;;;;;;5.56;64.29;100083.34;7683153;32;38078;-89
2024/01/24 19:44:16;;;;;;;18.65;11.00;;;;;;;5.36;65.57;100097.16;7683703;32;38064;-83
2024/01/24 19:48:33;;;;;;;19.60;12.05;;;;;;;5.41;66.02;100112.69;7682495;32;39363;-84
2024/01/24 19:52:51;;;;;;;26.00;11.80;;;;;;;5.59;65.22;100117.22;7684686;32;39764;-84
2024/01/24 19:57:07;;;;;;;15.85;10.20;;;;;;;5.48;65.28;100124.22;7682684;32;38843;-82